Time;durP1;ratioP1;P1;durP2;ratioP2;P2;SDS_P1;SDS_P2;PMS_P1;PMS_P2;Temp;Humidity;BMP_temperature;BMP_pressure;BME280_temperature;BME280_humidity;BME280_pressure;Samples;Min_cycle;Max_cycle;Signal;HPM_P1;HPM_P2
2021/04/03 00:08:56;;;;;;;6.38;0.60;;;11.40;62.10;;;;;;20805094;28;20030;-75
2021/04/03 00:18:56;;;;;;;0.98;0.57;;;11.40;62.10;;;;;;20842272;28;20148;-75
2021/04/03 00:28:57;;;;;;;0.55;0.50;;;11.40;62.10;;;;;;20886308;28;20060;-75
2021/04/03 00:38:58;;;;;;;1.42;0.38;;;11.30;62.10;;;;;;20886134;28;20029;-75
2021/04/03 00:48:59;;;;;;;0.88;0.68;;;11.40;62.10;;;;;;20902218;28;20052;-75
2021/04/03 00:58:59;;;;;;;0.88;0.40;;;11.30;62.00;;;;;;20906899;28;20065;-75
2021/04/03 01:09:02;;;;;;;0.30;0.30;;;11.30;62.10;;;;;;20900310;28;20510;-75
2021/04/03 01:19:41;;;;;;;2.35;0.90;;;11.30;62.00;;;;;;20899363;28;20402;-78
2021/04/03 01:30:04;;;;;;;0.47;0.30;;;11.30;62.00;;;;;;20914892;28;20052;-75
2021/04/03 01:40:14;;;;;;;0.28;0.20;;;11.20;61.90;;;;;;20899940;28;20037;-77
2021/04/03 01:50:16;;;;;;;0.30;0.28;;;11.20;61.90;;;;;;20836673;28;20042;-74
2021/04/03 02:00:20;;;;;;;2.75;0.47;;;11.20;62.60;;;;;;20782215;28;20048;-77
2021/04/03 02:10:32;;;;;;;0.90;0.45;;;11.20;61.90;;;;;;20798601;28;20037;-77
2021/04/03 02:20:37;;;;;;;1.48;1.15;;;11.20;61.90;;;;;;20812617;28;20403;-78
2021/04/03 02:30:38;;;;;;;8.77;0.60;;;11.10;61.80;;;;;;20821074;28;20048;-75
2021/04/03 02:40:39;;;;;;;0.35;0.28;;;11.20;61.90;;;;;;20824884;28;20029;-78
2021/04/03 02:50:42;;;;;;;3.58;1.65;;;11.20;61.80;;;;;;20809788;28;20033;-75
2021/04/03 03:00:50;;;;;;;0.85;0.55;;;11.10;61.70;;;;;;20813378;28;20064;-75
2021/04/03 03:10:51;;;;;;;4.07;0.93;;;11.10;61.70;;;;;;20874213;28;20040;-75
2021/04/03 03:20:53;;;;;;;2.17;0.30;;;11.10;61.70;;;;;;20871633;28;20036;-76
2021/04/03 03:30:54;;;;;;;2.72;0.35;;;11.10;61.60;;;;;;20872567;28;20080;-76
2021/04/03 03:40:59;;;;;;;1.33;1.25;;;11.10;61.60;;;;;;20872498;28;20036;-75
2021/04/03 03:51:02;;;;;;;0.47;0.40;;;11.10;61.60;;;;;;20870368;28;20041;-74
2021/04/03 04:01:11;;;;;;;0.20;0.20;;;11.10;61.70;;;;;;20921683;28;20128;-76
2021/04/03 04:11:14;;;;;;;0.68;0.30;;;11.10;61.60;;;;;;20886864;28;20483;-76
2021/04/03 04:21:15;;;;;;;0.20;0.20;;;11.10;61.60;;;;;;20886222;28;20033;-75
2021/04/03 04:31:18;;;;;;;1.75;0.65;;;11.00;61.60;;;;;;20887284;28;20040;-75
2021/04/03 04:41:28;;;;;;;0.45;0.45;;;11.00;61.50;;;;;;20902939;28;20029;-75
2021/04/03 04:51:29;;;;;;;9.18;0.93;;;11.10;61.60;;;;;;20900778;28;20048;-73
2021/04/03 05:01:39;;;;;;;4.18;0.30;;;11.00;61.60;;;;;;20901842;28;20070;-75
2021/04/03 05:11:43;;;;;;;0.40;0.40;;;11.00;61.60;;;;;;20899670;28;20090;-75
2021/04/03 05:21:43;;;;;;;6.22;0.68;;;11.00;61.60;;;;;;20898168;28;20029;-74
2021/04/03 05:31:44;;;;;;;0.32;0.20;;;11.00;61.50;;;;;;20913956;28;20403;-74
2021/04/03 05:41:44;;;;;;;1.30;0.38;;;10.90;61.50;;;;;;20897006;28;20029;-75
2021/04/03 05:51:46;;;;;;;4.10;0.70;;;10.90;61.50;;;;;;20888856;28;20296;-75
2021/04/03 06:01:46;;;;;;;0.77;0.50;;;11.00;61.60;;;;;;20796917;28;20788;-74
2021/04/03 06:11:48;;;;;;;0.80;0.60;;;10.90;61.50;;;;;;20796156;28;20034;-75
2021/04/03 06:22:00;;;;;;;1.45;0.30;;;10.90;61.60;;;;;;20795844;28;20372;-74
2021/04/03 06:32:01;;;;;;;0.25;0.22;;;10.90;61.60;;;;;;20830956;28;20453;-75
2021/04/03 06:42:02;;;;;;;0.50;0.40;;;10.90;61.60;;;;;;20875926;28;20029;-76
2021/04/03 06:52:03;;;;;;;0.63;0.55;;;10.90;61.70;;;;;;20891450;28;20467;-75
2021/04/03 07:02:04;;;;;;;2.00;0.50;;;10.90;61.70;;;;;;20907235;28;20060;-75
2021/04/03 07:12:05;;;;;;;1.88;0.90;;;10.90;61.70;;;;;;20906704;28;20475;-76
2021/04/03 07:22:06;;;;;;;2.03;0.77;;;10.90;61.70;;;;;;20876219;28;20132;-80
2021/04/03 07:32:08;;;;;;;0.77;0.30;;;10.90;61.80;;;;;;20890095;28;20065;-80
2021/04/03 07:42:08;;;;;;;1.05;0.43;;;10.90;61.90;;;;;;20882089;28;20032;-78
2021/04/03 07:52:10;;;;;;;1.92;0.60;;;10.80;61.90;;;;;;20888330;28;20029;-76
2021/04/03 08:02:14;;;;;;;1.65;0.65;;;10.80;61.90;;;;;;20847523;28;20112;-75
2021/04/03 08:12:16;;;;;;;2.25;0.68;;;11.00;62.10;;;;;;20884253;28;20166;-76
2021/04/03 08:22:20;;;;;;;3.10;0.73;;;11.10;62.10;;;;;;20880467;28;20124;-76
2021/04/03 08:32:20;;;;;;;4.75;0.50;;;11.20;62.50;;;;;;21065655;23;20352;-80
2021/04/03 08:42:21;;;;;;;11.20;1.20;;;11.20;62.90;;;;;;20654218;28;20125;-80
2021/04/03 08:52:22;;;;;;;1.25;0.45;;;11.20;62.60;;;;;;20651662;28;20054;-79
2021/04/03 09:02:22;;;;;;;0.10;0.10;;;11.20;62.60;;;;;;20650979;28;20093;-80
2021/04/03 09:12:27;;;;;;;6.70;0.57;;;11.10;62.50;;;;;;20666462;28;20455;-82
2021/04/03 09:22:28;;;;;;;0.65;0.30;;;11.10;62.30;;;;;;20665837;28;20065;-82
2021/04/03 09:32:28;;;;;;;0.35;0.08;;;11.00;61.60;;;;;;20647900;28;20042;-81
2021/04/03 09:42:30;;;;;;;0.65;0.22;;;11.00;61.00;;;;;;20646956;28;20297;-72
2021/04/03 09:52:30;;;;;;;0.00;0.00;;;11.10;60.50;;;;;;20665392;28;20125;-77
2021/04/03 10:02:32;;;;;;;0.60;0.20;;;11.10;60.10;;;;;;20643919;28;20112;-78
2021/04/03 10:12:32;;;;;;;0.08;0.03;;;11.10;59.90;;;;;;20646367;28;20030;-77
2021/04/03 10:22:33;;;;;;;0.13;0.13;;;11.10;59.70;;;;;;20644936;28;20065;-76
2021/04/03 10:32:33;;;;;;;0.93;0.55;;;11.00;59.50;;;;;;20644442;28;20488;-76
2021/04/03 10:42:34;;;;;;;0.80;0.40;;;11.00;59.20;;;;;;20661383;28;20472;-78
2021/04/03 10:52:35;;;;;;;0.53;0.27;;;11.10;59.00;;;;;;20624749;28;20046;-79
2021/04/03 11:02:35;;;;;;;0.10;0.10;;;11.00;58.70;;;;;;20661048;28;20628;-79
2021/04/03 11:12:36;;;;;;;0.10;0.10;;;11.00;58.30;;;;;;20642827;28;20038;-77
2021/04/03 11:22:37;;;;;;;0.85;0.30;;;11.00;58.20;;;;;;20642744;28;20393;-81
2021/04/03 11:32:38;;;;;;;0.10;0.10;;;10.90;57.80;;;;;;20624673;28;20046;-80
2021/04/03 11:42:38;;;;;;;0.10;0.10;;;10.90;57.50;;;;;;20626439;28;20042;-81
2021/04/03 11:52:40;;;;;;;0.45;0.30;;;11.00;57.40;;;;;;20624720;28;20034;-83
2021/04/03 12:02:45;;;;;;;0.13;0.10;;;11.00;57.40;;;;;;20641262;28;20049;-82
2021/04/03 12:12:46;;;;;;;0.15;0.15;;;10.90;57.00;;;;;;20626097;28;20043;-83
2021/04/03 12:22:52;;;;;;;0.10;0.10;;;10.90;56.70;;;;;;20642171;28;20126;-82
2021/04/03 12:32:52;;;;;;;0.10;0.10;;;10.90;56.40;;;;;;20631230;28;20038;-82
2021/04/03 12:42:55;;;;;;;0.65;0.38;;;10.90;55.90;;;;;;20656827;28;20100;-83
2021/04/03 12:52:59;;;;;;;0.20;0.20;;;10.90;55.60;;;;;;20642236;28;20042;-84
2021/04/03 13:03:00;;;;;;;0.10;0.10;;;10.90;55.10;;;;;;20688489;28;20045;-81
2021/04/03 13:13:01;;;;;;;0.70;0.20;;;11.00;55.00;;;;;;20669943;28;20440;-83
2021/04/03 13:23:04;;;;;;;0.40;0.30;;;11.00;54.90;;;;;;20656699;28;20189;-84
2021/04/03 13:33:07;;;;;;;0.10;0.10;;;10.90;54.60;;;;;;20674781;28;20042;-85
2021/04/03 13:43:08;;;;;;;0.20;0.10;;;10.90;54.10;;;;;;20658272;28;20043;-78
2021/04/03 13:53:09;;;;;;;0.13;0.13;;;11.00;54.00;;;;;;20636064;28;20634;-76
2021/04/03 14:03:12;;;;;;;0.00;0.00;;;11.00;53.80;;;;;;20649258;28;20046;-80
2021/04/03 14:13:15;;;;;;;0.45;0.17;;;11.10;54.00;;;;;;20652057;28;20042;-82
2021/04/03 14:23:15;;;;;;;0.73;0.15;;;11.10;54.20;;;;;;20649601;28;20088;-82
2021/04/03 14:33:16;;;;;;;5.55;0.35;;;11.20;54.50;;;;;;20649807;28;20424;-81
2021/04/03 14:43:17;;;;;;;6.78;0.98;;;11.10;54.40;;;;;;20647163;28;20473;-77
2021/04/03 14:53:18;;;;;;;4.47;0.55;;;11.20;54.10;;;;;;20663159;28;20038;-78
2021/04/03 15:03:19;;;;;;;0.60;0.25;;;11.30;54.10;;;;;;20663180;28;20027;-78
2021/04/03 15:13:19;;;;;;;3.75;0.50;;;11.50;54.30;;;;;;20678429;28;20306;-77
2021/04/03 15:23:20;;;;;;;0.30;0.30;;;11.50;54.10;;;;;;20669840;28;20064;-79
2021/04/03 15:33:21;;;;;;;0.85;0.60;;;11.50;54.10;;;;;;20607928;28;20453;-77
2021/04/03 15:43:21;;;;;;;0.20;0.20;;;11.50;53.80;;;;;;20643115;28;20485;-76
2021/04/03 15:53:22;;;;;;;0.30;0.20;;;11.70;53.60;;;;;;20644935;28;20754;-85
2021/04/03 16:03:27;;;;;;;2.10;0.77;;;11.70;53.50;;;;;;20640194;28;20289;-82
2021/04/03 16:13:28;;;;;;;7.38;0.38;;;11.70;53.50;;;;;;20636352;28;20042;-77
2021/04/03 16:23:29;;;;;;;0.95;0.30;;;11.70;53.60;;;;;;20636473;28;20113;-77
2021/04/03 16:33:31;;;;;;;0.50;0.25;;;11.70;53.80;;;;;;20584908;28;20058;-79
2021/04/03 16:43:33;;;;;;;0.85;0.30;;;11.70;54.20;;;;;;20590219;28;20038;-82
2021/04/03 16:53:33;;;;;;;0.32;0.22;;;11.60;54.40;;;;;;20609459;28;20115;-77
2021/04/03 17:03:34;;;;;;;4.25;0.73;;;11.60;54.70;;;;;;20668549;28;20124;-79
2021/04/03 17:13:34;;;;;;;0.60;0.35;;;11.60;55.00;;;;;;20651072;28;20038;-80
2021/04/03 17:23:35;;;;;;;0.30;0.30;;;11.60;55.20;;;;;;20650384;28;20547;-74
2021/04/03 17:33:36;;;;;;;0.10;0.10;;;11.60;55.40;;;;;;20646978;28;20049;-73
2021/04/03 17:43:37;;;;;;;1.23;0.20;;;11.50;55.60;;;;;;20665787;28;20384;-73
2021/04/03 17:53:37;;;;;;;0.80;0.43;;;11.50;55.90;;;;;;20647918;28;20788;-72
2021/04/03 18:03:38;;;;;;;0.30;0.28;;;11.40;56.20;;;;;;20648805;28;20034;-73
2021/04/03 18:13:39;;;;;;;0.67;0.37;;;11.40;56.50;;;;;;20646482;28;20673;-71
2021/04/03 18:23:43;;;;;;;1.98;0.38;;;11.30;56.70;;;;;;20646151;28;20292;-71
2021/04/03 18:33:44;;;;;;;0.57;0.38;;;11.30;56.90;;;;;;20643328;28;20077;-72
2021/04/03 18:43:45;;;;;;;0.10;0.10;;;11.30;57.20;;;;;;20644715;28;20111;-74
2021/04/03 18:53:46;;;;;;;0.60;0.30;;;11.30;57.30;;;;;;20641825;28;20073;-74
2021/04/03 19:03:46;;;;;;;0.38;0.30;;;11.20;57.30;;;;;;20627600;28;20088;-74
2021/04/03 19:13:47;;;;;;;0.40;0.38;;;11.30;57.50;;;;;;20641043;28;20492;-76
2021/04/03 19:23:47;;;;;;;0.53;0.40;;;11.30;57.50;;;;;;20625140;28;20037;-72
2021/04/03 19:33:48;;;;;;;0.80;0.27;;;11.20;57.40;;;;;;20624691;28;20293;-72
2021/04/03 19:43:49;;;;;;;1.08;0.60;;;11.20;57.40;;;;;;20641273;28;20281;-70
2021/04/03 19:53:49;;;;;;;0.45;0.28;;;11.20;57.40;;;;;;20641388;28;20034;-71
2021/04/03 20:03:50;;;;;;;1.08;0.25;;;11.20;57.30;;;;;;20635796;28;20652;-73
2021/04/03 20:13:51;;;;;;;2.13;0.40;;;11.20;57.30;;;;;;20643775;28;20030;-81
2021/04/03 20:23:53;;;;;;;0.40;0.30;;;11.20;57.30;;;;;;20642822;28;20543;-79
2021/04/03 20:33:53;;;;;;;0.30;0.30;;;11.10;57.30;;;;;;20640964;28;20034;-77
2021/04/03 20:43:56;;;;;;;0.30;0.30;;;11.10;57.30;;;;;;20640284;28;20023;-78
2021/04/03 20:53:57;;;;;;;2.53;0.60;;;11.20;57.40;;;;;;20640541;28;20308;-78
2021/04/03 21:03:57;;;;;;;0.40;0.40;;;11.10;57.30;;;;;;20647947;28;20110;-77
2021/04/03 21:13:59;;;;;;;1.08;0.70;;;11.10;57.30;;;;;;20615888;28;20038;-78
2021/04/03 21:24:00;;;;;;;0.73;0.40;;;11.10;57.30;;;;;;20611489;28;20061;-77
2021/04/03 21:34:03;;;;;;;0.13;0.13;;;11.10;57.40;;;;;;20658649;28;20042;-77
2021/04/03 21:44:05;;;;;;;0.45;0.38;;;11.10;57.40;;;;;;20634260;28;20444;-77
2021/04/03 21:54:06;;;;;;;1.10;0.40;;;11.10;57.40;;;;;;20645217;28;20633;-76
2021/04/03 22:04:07;;;;;;;1.13;0.22;;;11.10;57.40;;;;;;20648190;28;20034;-77
2021/04/03 22:14:08;;;;;;;0.43;0.40;;;11.00;57.30;;;;;;20667285;28;20173;-77
2021/04/03 22:24:09;;;;;;;0.38;0.38;;;11.10;57.40;;;;;;20648796;28;20030;-76
2021/04/03 22:34:10;;;;;;;2.42;0.60;;;11.10;57.30;;;;;;20631369;28;20057;-76
2021/04/03 22:44:11;;;;;;;2.40;0.80;;;11.00;57.30;;;;;;20632328;28;20104;-76
2021/04/03 22:54:12;;;;;;;0.17;0.13;;;11.00;57.30;;;;;;20630697;28;20057;-76
2021/04/03 23:04:17;;;;;;;0.57;0.30;;;11.00;57.30;;;;;;20629505;28;20405;-76
2021/04/03 23:14:19;;;;;;;0.20;0.20;;;11.00;57.30;;;;;;20647307;28;20269;-76
2021/04/03 23:24:20;;;;;;;0.93;0.77;;;11.00;57.20;;;;;;20663028;28;20041;-76
2021/04/03 23:34:22;;;;;;;0.60;0.30;;;10.90;57.20;;;;;;20627737;28;20301;-76
2021/04/03 23:44:23;;;;;;;0.60;0.43;;;10.90;57.20;;;;;;20627284;28;20185;-76
2021/04/03 23:54:23;;;;;;;1.45;0.35;;;10.90;57.20;;;;;;20626956;28;20054;-77
